sensor_id;sensor_type;location;lat;lon;timestamp;P1;durP1;ratioP1;P2;durP2;ratioP2
19808;SDS011;48538;32.784;-96.802;2023-04-15T00:00:33;5.40;;;3.00;;
19808;SDS011;48538;32.784;-96.802;2023-04-15T00:02:59;9.25;;;3.28;;
19808;SDS011;48538;32.784;-96.802;2023-04-15T00:05:28;5.70;;;3.10;;
19808;SDS011;48538;32.784;-96.802;2023-04-15T00:07:56;6.82;;;3.20;;
19808;SDS011;48538;32.784;-96.802;2023-04-15T00:10:23;6.72;;;3.45;;
19808;SDS011;48538;32.784;-96.802;2023-04-15T00:12:50;8.52;;;3.80;;
19808;SDS011;48538;32.784;-96.802;2023-04-15T00:15:16;6.88;;;3.45;;
19808;SDS011;48538;32.784;-96.802;2023-04-15T00:17:43;7.72;;;3.60;;
19808;SDS011;48538;32.784;-96.802;2023-04-15T00:20:09;6.85;;;3.63;;
19808;SDS011;48538;32.784;-96.802;2023-04-15T00:22:35;11.60;;;3.90;;
19808;SDS011;48538;32.784;-96.802;2023-04-15T00:25:02;5.95;;;3.47;;
19808;SDS011;48538;32.784;-96.802;2023-04-15T00:27:28;9.40;;;3.95;;
19808;SDS011;48538;32.784;-96.802;2023-04-15T00:29:55;7.22;;;3.47;;
19808;SDS011;48538;32.784;-96.802;2023-04-15T00:32:21;6.32;;;3.40;;
19808;SDS011;48538;32.784;-96.802;2023-04-15T00:34:47;5.85;;;3.05;;
19808;SDS011;48538;32.784;-96.802;2023-04-15T00:37:15;4.80;;;2.80;;
19808;SDS011;48538;32.784;-96.802;2023-04-15T00:39:41;6.30;;;2.97;;
19808;SDS011;48538;32.784;-96.802;2023-04-15T00:42:08;9.88;;;3.22;;
19808;SDS011;48538;32.784;-96.802;2023-04-15T00:44:35;4.03;;;2.65;;
19808;SDS011;48538;32.784;-96.802;2023-04-15T00:47:01;6.93;;;3.05;;
19808;SDS011;48538;32.784;-96.802;2023-04-15T00:49:30;5.60;;;2.72;;
19808;SDS011;48538;32.784;-96.802;2023-04-15T00:51:56;5.53;;;2.80;;
19808;SDS011;48538;32.784;-96.802;2023-04-15T00:54:22;9.00;;;3.08;;
19808;SDS011;48538;32.784;-96.802;2023-04-15T00:56:49;4.70;;;2.80;;
19808;SDS011;48538;32.784;-96.802;2023-04-15T00:59:16;5.28;;;2.80;;
19808;SDS011;48538;32.784;-96.802;2023-04-15T01:01:43;3.63;;;3.15;;
19808;SDS011;48538;32.784;-96.802;2023-04-15T01:04:09;3.72;;;2.90;;
19808;SDS011;48538;32.784;-96.802;2023-04-15T01:06:36;4.97;;;3.50;;
19808;SDS011;48538;32.784;-96.802;2023-04-15T01:09:03;6.75;;;3.30;;
19808;SDS011;48538;32.784;-96.802;2023-04-15T01:11:29;5.35;;;3.10;;
19808;SDS011;48538;32.784;-96.802;2023-04-15T01:14:00;4.63;;;3.17;;
19808;SDS011;48538;32.784;-96.802;2023-04-15T01:16:27;4.18;;;3.33;;
19808;SDS011;48538;32.784;-96.802;2023-04-15T01:18:53;5.30;;;3.30;;
19808;SDS011;48538;32.784;-96.802;2023-04-15T01:21:20;5.72;;;3.78;;
19808;SDS011;48538;32.784;-96.802;2023-04-15T01:23:47;7.38;;;4.22;;
19808;SDS011;48538;32.784;-96.802;2023-04-15T01:26:15;7.40;;;4.22;;
19808;SDS011;48538;32.784;-96.802;2023-04-15T01:28:42;6.45;;;4.18;;
19808;SDS011;48538;32.784;-96.802;2023-04-15T01:31:12;9.18;;;4.70;;
19808;SDS011;48538;32.784;-96.802;2023-04-15T01:33:40;7.63;;;4.72;;
19808;SDS011;48538;32.784;-96.802;2023-04-15T01:36:07;6.93;;;4.40;;
19808;SDS011;48538;32.784;-96.802;2023-04-15T01:38:35;8.55;;;4.70;;
19808;SDS011;48538;32.784;-96.802;2023-04-15T01:41:02;8.00;;;4.40;;
19808;SDS011;48538;32.784;-96.802;2023-04-15T01:43:29;8.15;;;3.90;;
19808;SDS011;48538;32.784;-96.802;2023-04-15T01:45:55;8.80;;;4.32;;
19808;SDS011;48538;32.784;-96.802;2023-04-15T01:48:22;7.00;;;4.20;;
19808;SDS011;48538;32.784;-96.802;2023-04-15T01:50:48;6.55;;;3.75;;
19808;SDS011;48538;32.784;-96.802;2023-04-15T01:53:14;7.28;;;4.00;;
19808;SDS011;48538;32.784;-96.802;2023-04-15T01:55:41;8.23;;;4.35;;
19808;SDS011;48538;32.784;-96.802;2023-04-15T01:58:07;5.57;;;3.92;;
19808;SDS011;48538;32.784;-96.802;2023-04-15T02:00:34;8.57;;;4.13;;
19808;SDS011;48538;32.784;-96.802;2023-04-15T02:03:00;9.18;;;4.05;;
19808;SDS011;48538;32.784;-96.802;2023-04-15T02:05:26;7.70;;;4.18;;
19808;SDS011;48538;32.784;-96.802;2023-04-15T02:07:53;8.35;;;3.92;;
19808;SDS011;48538;32.784;-96.802;2023-04-15T02:10:19;8.43;;;3.75;;
19808;SDS011;48538;32.784;-96.802;2023-04-15T02:12:46;8.20;;;3.88;;
19808;SDS011;48538;32.784;-96.802;2023-04-15T02:15:12;5.20;;;4.00;;
19808;SDS011;48538;32.784;-96.802;2023-04-15T02:17:38;8.98;;;4.35;;
19808;SDS011;48538;32.784;-96.802;2023-04-15T02:20:05;7.60;;;4.63;;
19808;SDS011;48538;32.784;-96.802;2023-04-15T02:22:33;9.50;;;4.78;;
19808;SDS011;48538;32.784;-96.802;2023-04-15T02:24:59;9.18;;;5.15;;
19808;SDS011;48538;32.784;-96.802;2023-04-15T02:27:25;10.07;;;4.72;;
19808;SDS011;48538;32.784;-96.802;2023-04-15T02:29:53;6.65;;;4.55;;
19808;SDS011;48538;32.784;-96.802;2023-04-15T02:32:19;6.78;;;4.85;;
19808;SDS011;48538;32.784;-96.802;2023-04-15T02:34:47;7.68;;;4.32;;
19808;SDS011;48538;32.784;-96.802;2023-04-15T02:37:13;6.00;;;4.15;;
19808;SDS011;48538;32.784;-96.802;2023-04-15T02:39:40;10.18;;;4.78;;
19808;SDS011;48538;32.784;-96.802;2023-04-15T02:42:06;6.70;;;5.30;;
19808;SDS011;48538;32.784;-96.802;2023-04-15T02:44:32;6.55;;;4.93;;
19808;SDS011;48538;32.784;-96.802;2023-04-15T02:47:00;8.50;;;5.63;;
19808;SDS011;48538;32.784;-96.802;2023-04-15T02:49:27;8.93;;;5.20;;
19808;SDS011;48538;32.784;-96.802;2023-04-15T02:51:55;7.13;;;4.43;;
19808;SDS011;48538;32.784;-96.802;2023-04-15T02:54:22;9.55;;;5.25;;
19808;SDS011;48538;32.784;-96.802;2023-04-15T02:56:49;8.05;;;4.70;;
19808;SDS011;48538;32.784;-96.802;2023-04-15T02:59:19;6.90;;;4.55;;
19808;SDS011;48538;32.784;-96.802;2023-04-15T03:01:46;5.50;;;4.22;;
19808;SDS011;48538;32.784;-96.802;2023-04-15T03:04:12;5.97;;;4.32;;
19808;SDS011;48538;32.784;-96.802;2023-04-15T03:06:38;8.43;;;4.22;;
19808;SDS011;48538;32.784;-96.802;2023-04-15T03:09:05;5.88;;;4.38;;
19808;SDS011;48538;32.784;-96.802;2023-04-15T03:11:31;7.18;;;4.82;;
19808;SDS011;48538;32.784;-96.802;2023-04-15T03:13:57;6.03;;;4.30;;
19808;SDS011;48538;32.784;-96.802;2023-04-15T03:16:24;6.53;;;4.35;;
19808;SDS011;48538;32.784;-96.802;2023-04-15T03:18:50;5.72;;;4.00;;
19808;SDS011;48538;32.784;-96.802;2023-04-15T03:21:16;8.00;;;4.18;;
19808;SDS011;48538;32.784;-96.802;2023-04-15T03:23:44;7.32;;;4.13;;
19808;SDS011;48538;32.784;-96.802;2023-04-15T03:26:22;6.80;;;3.92;;
19808;SDS011;48538;32.784;-96.802;2023-04-15T03:28:51;7.53;;;4.40;;
19808;SDS011;48538;32.784;-96.802;2023-04-15T03:31:17;7.05;;;4.07;;
19808;SDS011;48538;32.784;-96.802;2023-04-15T03:33:43;5.32;;;4.00;;
19808;SDS011;48538;32.784;-96.802;2023-04-15T03:36:10;8.05;;;4.07;;
19808;SDS011;48538;32.784;-96.802;2023-04-15T03:38:36;7.00;;;3.95;;
19808;SDS011;48538;32.784;-96.802;2023-04-15T03:41:02;4.70;;;3.50;;
19808;SDS011;48538;32.784;-96.802;2023-04-15T03:43:29;7.85;;;3.50;;
19808;SDS011;48538;32.784;-96.802;2023-04-15T03:45:55;5.95;;;4.10;;
19808;SDS011;48538;32.784;-96.802;2023-04-15T03:48:21;6.38;;;3.55;;
19808;SDS011;48538;32.784;-96.802;2023-04-15T03:50:48;5.13;;;3.33;;
19808;SDS011;48538;32.784;-96.802;2023-04-15T03:53:14;5.82;;;4.00;;
19808;SDS011;48538;32.784;-96.802;2023-04-15T03:55:40;8.35;;;3.88;;
19808;SDS011;48538;32.784;-96.802;2023-04-15T03:58:07;6.93;;;3.83;;
19808;SDS011;48538;32.784;-96.802;2023-04-15T04:00:37;8.52;;;4.13;;
19808;SDS011;48538;32.784;-96.802;2023-04-15T04:03:04;5.00;;;3.30;;
19808;SDS011;48538;32.784;-96.802;2023-04-15T04:05:30;7.47;;;3.70;;
19808;SDS011;48538;32.784;-96.802;2023-04-15T04:07:57;3.70;;;3.22;;
19808;SDS011;48538;32.784;-96.802;2023-04-15T04:10:23;6.45;;;3.58;;
19808;SDS011;48538;32.784;-96.802;2023-04-15T04:12:49;7.43;;;3.60;;
19808;SDS011;48538;32.784;-96.802;2023-04-15T04:15:16;4.97;;;3.30;;
19808;SDS011;48538;32.784;-96.802;2023-04-15T04:17:42;6.60;;;3.38;;
19808;SDS011;48538;32.784;-96.802;2023-04-15T04:20:09;6.50;;;3.60;;
19808;SDS011;48538;32.784;-96.802;2023-04-15T04:22:39;4.65;;;3.22;;
19808;SDS011;48538;32.784;-96.802;2023-04-15T04:25:05;3.65;;;3.20;;
19808;SDS011;48538;32.784;-96.802;2023-04-15T04:27:35;4.30;;;2.90;;
19808;SDS011;48538;32.784;-96.802;2023-04-15T04:30:02;5.43;;;3.20;;
19808;SDS011;48538;32.784;-96.802;2023-04-15T04:32:29;8.50;;;3.30;;
19808;SDS011;48538;32.784;-96.802;2023-04-15T04:34:55;6.25;;;3.72;;
19808;SDS011;48538;32.784;-96.802;2023-04-15T04:37:21;5.85;;;3.58;;
19808;SDS011;48538;32.784;-96.802;2023-04-15T04:39:48;8.23;;;3.63;;
19808;SDS011;48538;32.784;-96.802;2023-04-15T04:42:15;4.28;;;3.30;;
19808;SDS011;48538;32.784;-96.802;2023-04-15T04:44:41;6.47;;;3.63;;
19808;SDS011;48538;32.784;-96.802;2023-04-15T04:47:07;6.80;;;3.25;;
19808;SDS011;48538;32.784;-96.802;2023-04-15T04:49:34;5.65;;;3.15;;
19808;SDS011;48538;32.784;-96.802;2023-04-15T04:52:01;8.98;;;3.75;;
19808;SDS011;48538;32.784;-96.802;2023-04-15T04:54:27;8.70;;;3.63;;
19808;SDS011;48538;32.784;-96.802;2023-04-15T04:56:54;9.98;;;3.50;;
19808;SDS011;48538;32.784;-96.802;2023-04-15T04:59:22;5.63;;;3.05;;
19808;SDS011;48538;32.784;-96.802;2023-04-15T05:01:48;8.05;;;3.10;;
19808;SDS011;48538;32.784;-96.802;2023-04-15T05:04:15;3.67;;;3.08;;
19808;SDS011;48538;32.784;-96.802;2023-04-15T05:06:41;5.10;;;3.67;;
19808;SDS011;48538;32.784;-96.802;2023-04-15T05:09:08;6.57;;;3.33;;
19808;SDS011;48538;32.784;-96.802;2023-04-15T05:11:34;4.45;;;3.10;;
19808;SDS011;48538;32.784;-96.802;2023-04-15T05:14:00;6.65;;;3.33;;
19808;SDS011;48538;32.784;-96.802;2023-04-15T05:16:27;4.95;;;3.38;;
19808;SDS011;48538;32.784;-96.802;2023-04-15T05:18:53;7.82;;;3.53;;
19808;SDS011;48538;32.784;-96.802;2023-04-15T05:21:19;5.85;;;3.17;;
19808;SDS011;48538;32.784;-96.802;2023-04-15T05:23:46;6.03;;;3.47;;
19808;SDS011;48538;32.784;-96.802;2023-04-15T05:26:12;6.35;;;3.67;;
19808;SDS011;48538;32.784;-96.802;2023-04-15T05:28:39;8.63;;;3.90;;
19808;SDS011;48538;32.784;-96.802;2023-04-15T05:31:05;7.28;;;3.83;;
19808;SDS011;48538;32.784;-96.802;2023-04-15T05:33:32;7.30;;;2.88;;
19808;SDS011;48538;32.784;-96.802;2023-04-15T05:35:58;5.03;;;3.22;;
19808;SDS011;48538;32.784;-96.802;2023-04-15T05:38:25;8.07;;;3.88;;
19808;SDS011;48538;32.784;-96.802;2023-04-15T05:40:51;7.43;;;4.00;;
19808;SDS011;48538;32.784;-96.802;2023-04-15T05:43:18;6.68;;;4.22;;
19808;SDS011;48538;32.784;-96.802;2023-04-15T05:45:44;4.68;;;3.55;;
19808;SDS011;48538;32.784;-96.802;2023-04-15T05:48:10;7.75;;;3.88;;
19808;SDS011;48538;32.784;-96.802;2023-04-15T05:50:39;9.10;;;4.05;;
19808;SDS011;48538;32.784;-96.802;2023-04-15T05:53:06;9.02;;;3.75;;
19808;SDS011;48538;32.784;-96.802;2023-04-15T05:55:33;8.38;;;3.85;;
19808;SDS011;48538;32.784;-96.802;2023-04-15T05:57:59;6.95;;;3.60;;
19808;SDS011;48538;32.784;-96.802;2023-04-15T06:00:26;4.93;;;4.43;;
19808;SDS011;48538;32.784;-96.802;2023-04-15T06:02:52;7.30;;;3.72;;
19808;SDS011;48538;32.784;-96.802;2023-04-15T06:05:20;6.10;;;4.05;;
19808;SDS011;48538;32.784;-96.802;2023-04-15T06:07:47;9.07;;;4.22;;
19808;SDS011;48538;32.784;-96.802;2023-04-15T06:10:14;4.88;;;3.83;;
19808;SDS011;48538;32.784;-96.802;2023-04-15T06:12:41;6.65;;;4.07;;
19808;SDS011;48538;32.784;-96.802;2023-04-15T06:15:07;7.10;;;4.35;;
19808;SDS011;48538;32.784;-96.802;2023-04-15T06:17:36;7.30;;;3.60;;
19808;SDS011;48538;32.784;-96.802;2023-04-15T06:20:03;6.90;;;3.90;;
19808;SDS011;48538;32.784;-96.802;2023-04-15T06:22:29;7.30;;;4.15;;
19808;SDS011;48538;32.784;-96.802;2023-04-15T06:24:55;8.65;;;4.57;;
19808;SDS011;48538;32.784;-96.802;2023-04-15T06:27:22;9.02;;;4.35;;
19808;SDS011;48538;32.784;-96.802;2023-04-15T06:29:48;9.00;;;4.32;;
19808;SDS011;48538;32.784;-96.802;2023-04-15T06:32:14;10.40;;;4.88;;
19808;SDS011;48538;32.784;-96.802;2023-04-15T06:34:41;7.20;;;4.15;;
19808;SDS011;48538;32.784;-96.802;2023-04-15T06:37:07;5.20;;;4.00;;
19808;SDS011;48538;32.784;-96.802;2023-04-15T06:39:35;7.85;;;4.32;;
19808;SDS011;48538;32.784;-96.802;2023-04-15T06:42:02;10.25;;;4.80;;
19808;SDS011;48538;32.784;-96.802;2023-04-15T06:44:28;7.28;;;4.32;;
19808;SDS011;48538;32.784;-96.802;2023-04-15T06:46:55;7.50;;;4.35;;
19808;SDS011;48538;32.784;-96.802;2023-04-15T06:49:21;10.07;;;4.70;;
19808;SDS011;48538;32.784;-96.802;2023-04-15T06:51:47;8.50;;;4.50;;
19808;SDS011;48538;32.784;-96.802;2023-04-15T06:54:15;8.20;;;4.22;;
19808;SDS011;48538;32.784;-96.802;2023-04-15T06:56:41;8.57;;;4.32;;
19808;SDS011;48538;32.784;-96.802;2023-04-15T06:59:08;8.82;;;3.92;;
19808;SDS011;48538;32.784;-96.802;2023-04-15T07:01:34;9.48;;;4.10;;
19808;SDS011;48538;32.784;-96.802;2023-04-15T07:04:00;8.15;;;4.68;;
19808;SDS011;48538;32.784;-96.802;2023-04-15T07:06:27;4.40;;;3.85;;
19808;SDS011;48538;32.784;-96.802;2023-04-15T07:08:53;7.05;;;4.50;;
19808;SDS011;48538;32.784;-96.802;2023-04-15T07:11:19;8.75;;;4.10;;
19808;SDS011;48538;32.784;-96.802;2023-04-15T07:13:46;9.38;;;5.30;;
19808;SDS011;48538;32.784;-96.802;2023-04-15T07:16:12;8.20;;;5.03;;
19808;SDS011;48538;32.784;-96.802;2023-04-15T07:18:38;9.23;;;4.80;;
19808;SDS011;48538;32.784;-96.802;2023-04-15T07:21:11;6.28;;;4.28;;
19808;SDS011;48538;32.784;-96.802;2023-04-15T07:23:37;8.70;;;4.88;;
19808;SDS011;48538;32.784;-96.802;2023-04-15T07:26:03;10.65;;;4.50;;
19808;SDS011;48538;32.784;-96.802;2023-04-15T07:28:30;11.02;;;4.97;;
19808;SDS011;48538;32.784;-96.802;2023-04-15T07:30:56;9.32;;;4.57;;
19808;SDS011;48538;32.784;-96.802;2023-04-15T07:33:22;7.50;;;4.97;;
19808;SDS011;48538;32.784;-96.802;2023-04-15T07:35:48;9.98;;;4.65;;
19808;SDS011;48538;32.784;-96.802;2023-04-15T07:38:15;8.73;;;4.55;;
19808;SDS011;48538;32.784;-96.802;2023-04-15T07:40:41;7.72;;;4.70;;
19808;SDS011;48538;32.784;-96.802;2023-04-15T07:43:08;11.82;;;5.53;;
19808;SDS011;48538;32.784;-96.802;2023-04-15T07:45:35;10.50;;;4.97;;
19808;SDS011;48538;32.784;-96.802;2023-04-15T07:48:01;10.25;;;4.97;;
19808;SDS011;48538;32.784;-96.802;2023-04-15T07:50:28;8.35;;;5.00;;
19808;SDS011;48538;32.784;-96.802;2023-04-15T07:52:54;7.40;;;4.60;;
19808;SDS011;48538;32.784;-96.802;2023-04-15T07:55:21;19.55;;;5.43;;
19808;SDS011;48538;32.784;-96.802;2023-04-15T07:57:48;8.38;;;5.07;;
19808;SDS011;48538;32.784;-96.802;2023-04-15T08:00:15;9.27;;;5.10;;
19808;SDS011;48538;32.784;-96.802;2023-04-15T08:02:42;6.88;;;4.72;;
19808;SDS011;48538;32.784;-96.802;2023-04-15T08:05:11;11.23;;;4.82;;
19808;SDS011;48538;32.784;-96.802;2023-04-15T08:07:39;11.65;;;5.25;;
19808;SDS011;48538;32.784;-96.802;2023-04-15T08:10:06;10.07;;;5.10;;
19808;SDS011;48538;32.784;-96.802;2023-04-15T08:12:32;9.48;;;4.40;;
19808;SDS011;48538;32.784;-96.802;2023-04-15T08:14:59;8.23;;;4.65;;
19808;SDS011;48538;32.784;-96.802;2023-04-15T08:17:26;15.00;;;5.25;;
19808;SDS011;48538;32.784;-96.802;2023-04-15T08:19:52;7.88;;;5.18;;
19808;SDS011;48538;32.784;-96.802;2023-04-15T08:22:19;7.93;;;4.68;;
19808;SDS011;48538;32.784;-96.802;2023-04-15T08:24:45;11.00;;;5.38;;
19808;SDS011;48538;32.784;-96.802;2023-04-15T08:27:11;11.88;;;5.30;;
19808;SDS011;48538;32.784;-96.802;2023-04-15T08:29:37;10.10;;;5.13;;
19808;SDS011;48538;32.784;-96.802;2023-04-15T08:32:04;7.88;;;4.55;;
19808;SDS011;48538;32.784;-96.802;2023-04-15T08:34:31;13.95;;;5.20;;
19808;SDS011;48538;32.784;-96.802;2023-04-15T08:36:59;11.98;;;5.72;;
19808;SDS011;48538;32.784;-96.802;2023-04-15T08:39:25;9.57;;;4.32;;
19808;SDS011;48538;32.784;-96.802;2023-04-15T08:42:01;13.05;;;5.00;;
19808;SDS011;48538;32.784;-96.802;2023-04-15T08:44:34;6.70;;;4.65;;
19808;SDS011;48538;32.784;-96.802;2023-04-15T08:47:06;8.40;;;4.90;;
19808;SDS011;48538;32.784;-96.802;2023-04-15T08:49:34;8.50;;;5.18;;
19808;SDS011;48538;32.784;-96.802;2023-04-15T08:52:04;10.57;;;4.50;;
19808;SDS011;48538;32.784;-96.802;2023-04-15T08:54:31;13.25;;;4.60;;
19808;SDS011;48538;32.784;-96.802;2023-04-15T08:56:59;9.05;;;4.80;;
19808;SDS011;48538;32.784;-96.802;2023-04-15T08:59:27;10.27;;;4.82;;
19808;SDS011;48538;32.784;-96.802;2023-04-15T09:01:56;12.25;;;4.70;;
19808;SDS011;48538;32.784;-96.802;2023-04-15T09:04:23;8.90;;;4.50;;
19808;SDS011;48538;32.784;-96.802;2023-04-15T09:06:49;14.23;;;5.03;;
19808;SDS011;48538;32.784;-96.802;2023-04-15T09:09:16;8.48;;;4.97;;
19808;SDS011;48538;32.784;-96.802;2023-04-15T09:11:42;14.07;;;5.55;;
19808;SDS011;48538;32.784;-96.802;2023-04-15T09:14:09;15.10;;;5.75;;
19808;SDS011;48538;32.784;-96.802;2023-04-15T09:19:22;8.73;;;4.63;;
19808;SDS011;48538;32.784;-96.802;2023-04-15T09:21:50;6.30;;;4.32;;
19808;SDS011;48538;32.784;-96.802;2023-04-15T09:24:18;6.55;;;4.20;;
19808;SDS011;48538;32.784;-96.802;2023-04-15T09:26:44;9.77;;;4.82;;
19808;SDS011;48538;32.784;-96.802;2023-04-15T09:29:11;10.95;;;5.25;;
19808;SDS011;48538;32.784;-96.802;2023-04-15T09:31:38;10.70;;;4.82;;
19808;SDS011;48538;32.784;-96.802;2023-04-15T09:34:05;6.15;;;4.95;;
19808;SDS011;48538;32.784;-96.802;2023-04-15T09:36:56;10.10;;;4.57;;
19808;SDS011;48538;32.784;-96.802;2023-04-15T09:39:22;10.70;;;5.30;;
19808;SDS011;48538;32.784;-96.802;2023-04-15T09:42:04;8.32;;;4.80;;
19808;SDS011;48538;32.784;-96.802;2023-04-15T09:44:32;10.50;;;5.00;;
19808;SDS011;48538;32.784;-96.802;2023-04-15T09:46:58;15.73;;;5.10;;
19808;SDS011;48538;32.784;-96.802;2023-04-15T09:49:25;10.43;;;4.85;;
19808;SDS011;48538;32.784;-96.802;2023-04-15T09:51:56;10.40;;;5.00;;
19808;SDS011;48538;32.784;-96.802;2023-04-15T09:54:35;9.27;;;5.15;;
19808;SDS011;48538;32.784;-96.802;2023-04-15T09:57:06;11.68;;;5.22;;
19808;SDS011;48538;32.784;-96.802;2023-04-15T09:59:34;13.00;;;5.38;;
19808;SDS011;48538;32.784;-96.802;2023-04-15T10:02:01;7.75;;;4.55;;
19808;SDS011;48538;32.784;-96.802;2023-04-15T10:04:31;12.65;;;4.93;;
19808;SDS011;48538;32.784;-96.802;2023-04-15T10:07:02;9.35;;;4.63;;
19808;SDS011;48538;32.784;-96.802;2023-04-15T10:09:30;8.60;;;4.72;;
19808;SDS011;48538;32.784;-96.802;2023-04-15T10:11:58;9.32;;;5.43;;
19808;SDS011;48538;32.784;-96.802;2023-04-15T10:14:25;11.98;;;5.00;;
19808;SDS011;48538;32.784;-96.802;2023-04-15T10:16:53;12.40;;;5.88;;
19808;SDS011;48538;32.784;-96.802;2023-04-15T10:19:23;12.27;;;5.13;;
19808;SDS011;48538;32.784;-96.802;2023-04-15T10:21:56;8.27;;;5.07;;
19808;SDS011;48538;32.784;-96.802;2023-04-15T10:24:23;11.05;;;4.90;;
19808;SDS011;48538;32.784;-96.802;2023-04-15T10:26:51;10.70;;;4.72;;
19808;SDS011;48538;32.784;-96.802;2023-04-15T10:29:18;9.73;;;4.80;;
19808;SDS011;48538;32.784;-96.802;2023-04-15T10:31:45;11.40;;;5.15;;
19808;SDS011;48538;32.784;-96.802;2023-04-15T10:34:12;11.30;;;5.00;;
19808;SDS011;48538;32.784;-96.802;2023-04-15T10:36:40;12.52;;;5.40;;
19808;SDS011;48538;32.784;-96.802;2023-04-15T10:42:15;12.25;;;5.38;;
19808;SDS011;48538;32.784;-96.802;2023-04-15T10:44:48;9.63;;;5.10;;
19808;SDS011;48538;32.784;-96.802;2023-04-15T10:47:17;13.48;;;5.25;;
19808;SDS011;48538;32.784;-96.802;2023-04-15T10:49:45;14.25;;;5.45;;
19808;SDS011;48538;32.784;-96.802;2023-04-15T10:52:17;7.43;;;4.65;;
19808;SDS011;48538;32.784;-96.802;2023-04-15T10:54:47;12.18;;;5.85;;
19808;SDS011;48538;32.784;-96.802;2023-04-15T10:57:21;6.95;;;4.78;;
19808;SDS011;48538;32.784;-96.802;2023-04-15T11:02:39;18.30;;;6.35;;
19808;SDS011;48538;32.784;-96.802;2023-04-15T11:08:07;8.55;;;5.18;;
19808;SDS011;48538;32.784;-96.802;2023-04-15T11:13:02;11.88;;;5.72;;
19808;SDS011;48538;32.784;-96.802;2023-04-15T11:15:40;10.93;;;6.03;;
19808;SDS011;48538;32.784;-96.802;2023-04-15T11:20:39;9.55;;;5.88;;
19808;SDS011;48538;32.784;-96.802;2023-04-15T11:23:07;17.17;;;6.40;;
19808;SDS011;48538;32.784;-96.802;2023-04-15T11:25:34;11.50;;;5.65;;
19808;SDS011;48538;32.784;-96.802;2023-04-15T11:28:04;10.63;;;5.65;;
19808;SDS011;48538;32.784;-96.802;2023-04-15T11:30:32;18.25;;;8.00;;
19808;SDS011;48538;32.784;-96.802;2023-04-15T11:33:00;11.32;;;6.55;;
19808;SDS011;48538;32.784;-96.802;2023-04-15T11:35:28;13.77;;;5.88;;
19808;SDS011;48538;32.784;-96.802;2023-04-15T11:37:55;10.18;;;6.43;;
19808;SDS011;48538;32.784;-96.802;2023-04-15T11:40:27;12.30;;;6.47;;
19808;SDS011;48538;32.784;-96.802;2023-04-15T11:45:31;11.98;;;6.00;;
19808;SDS011;48538;32.784;-96.802;2023-04-15T11:48:10;11.70;;;7.05;;
19808;SDS011;48538;32.784;-96.802;2023-04-15T11:50:37;11.55;;;6.43;;
19808;SDS011;48538;32.784;-96.802;2023-04-15T11:53:08;18.08;;;7.05;;
19808;SDS011;48538;32.784;-96.802;2023-04-15T11:55:43;16.88;;;7.55;;
19808;SDS011;48538;32.784;-96.802;2023-04-15T11:58:14;11.10;;;6.88;;
19808;SDS011;48538;32.784;-96.802;2023-04-15T12:00:56;12.82;;;7.68;;
19808;SDS011;48538;32.784;-96.802;2023-04-15T12:03:27;21.08;;;7.68;;
19808;SDS011;48538;32.784;-96.802;2023-04-15T12:06:06;10.50;;;6.45;;
19808;SDS011;48538;32.784;-96.802;2023-04-15T12:08:51;14.25;;;7.25;;
19808;SDS011;48538;32.784;-96.802;2023-04-15T12:13:54;16.42;;;7.43;;
19808;SDS011;48538;32.784;-96.802;2023-04-15T12:16:28;13.90;;;7.93;;
19808;SDS011;48538;32.784;-96.802;2023-04-15T12:18:56;18.13;;;8.25;;
19808;SDS011;48538;32.784;-96.802;2023-04-15T12:21:24;14.13;;;8.40;;
19808;SDS011;48538;32.784;-96.802;2023-04-15T12:23:54;15.43;;;7.95;;
19808;SDS011;48538;32.784;-96.802;2023-04-15T12:26:27;16.65;;;7.95;;
19808;SDS011;48538;32.784;-96.802;2023-04-15T12:29:09;17.15;;;8.60;;
19808;SDS011;48538;32.784;-96.802;2023-04-15T12:31:38;17.02;;;8.25;;
19808;SDS011;48538;32.784;-96.802;2023-04-15T12:34:13;12.68;;;7.97;;
19808;SDS011;48538;32.784;-96.802;2023-04-15T12:36:40;16.77;;;7.95;;
19808;SDS011;48538;32.784;-96.802;2023-04-15T12:39:06;14.30;;;7.80;;
19808;SDS011;48538;32.784;-96.802;2023-04-15T12:41:32;14.85;;;7.57;;
19808;SDS011;48538;32.784;-96.802;2023-04-15T12:43:59;11.57;;;7.93;;
19808;SDS011;48538;32.784;-96.802;2023-04-15T12:46:26;17.77;;;7.80;;
19808;SDS011;48538;32.784;-96.802;2023-04-15T12:48:52;18.35;;;7.22;;
19808;SDS011;48538;32.784;-96.802;2023-04-15T12:51:19;13.27;;;7.70;;
19808;SDS011;48538;32.784;-96.802;2023-04-15T12:53:48;19.88;;;6.97;;
19808;SDS011;48538;32.784;-96.802;2023-04-15T12:56:15;14.85;;;7.65;;
19808;SDS011;48538;32.784;-96.802;2023-04-15T12:58:42;15.98;;;7.45;;
19808;SDS011;48538;32.784;-96.802;2023-04-15T13:01:08;11.40;;;6.63;;
19808;SDS011;48538;32.784;-96.802;2023-04-15T13:03:35;12.95;;;7.38;;
19808;SDS011;48538;32.784;-96.802;2023-04-15T13:06:01;15.07;;;7.80;;
19808;SDS011;48538;32.784;-96.802;2023-04-15T13:08:29;10.48;;;6.82;;
19808;SDS011;48538;32.784;-96.802;2023-04-15T13:10:55;13.48;;;6.70;;
19808;SDS011;48538;32.784;-96.802;2023-04-15T13:13:22;14.88;;;7.22;;
19808;SDS011;48538;32.784;-96.802;2023-04-15T13:15:48;12.35;;;7.00;;
19808;SDS011;48538;32.784;-96.802;2023-04-15T13:18:14;10.43;;;6.60;;
19808;SDS011;48538;32.784;-96.802;2023-04-15T13:20:41;11.30;;;7.03;;
19808;SDS011;48538;32.784;-96.802;2023-04-15T13:23:07;13.90;;;6.88;;
19808;SDS011;48538;32.784;-96.802;2023-04-15T13:25:34;11.80;;;6.45;;
19808;SDS011;48538;32.784;-96.802;2023-04-15T13:28:00;13.85;;;6.28;;
19808;SDS011;48538;32.784;-96.802;2023-04-15T13:30:26;15.05;;;7.00;;
19808;SDS011;48538;32.784;-96.802;2023-04-15T13:32:53;10.52;;;5.95;;
19808;SDS011;48538;32.784;-96.802;2023-04-15T13:35:19;11.60;;;6.05;;
19808;SDS011;48538;32.784;-96.802;2023-04-15T13:37:46;12.90;;;6.78;;
19808;SDS011;48538;32.784;-96.802;2023-04-15T13:40:12;16.63;;;6.38;;
19808;SDS011;48538;32.784;-96.802;2023-04-15T13:42:38;8.30;;;5.72;;
19808;SDS011;48538;32.784;-96.802;2023-04-15T13:45:05;12.70;;;6.28;;
19808;SDS011;48538;32.784;-96.802;2023-04-15T13:47:32;11.05;;;6.97;;
19808;SDS011;48538;32.784;-96.802;2023-04-15T13:49:58;11.43;;;6.13;;
19808;SDS011;48538;32.784;-96.802;2023-04-15T13:52:24;8.75;;;5.47;;
19808;SDS011;48538;32.784;-96.802;2023-04-15T13:54:51;12.07;;;5.63;;
19808;SDS011;48538;32.784;-96.802;2023-04-15T13:57:17;13.55;;;5.95;;
19808;SDS011;48538;32.784;-96.802;2023-04-15T13:59:43;12.57;;;5.35;;
19808;SDS011;48538;32.784;-96.802;2023-04-15T14:02:09;11.27;;;5.70;;
19808;SDS011;48538;32.784;-96.802;2023-04-15T14:04:36;12.80;;;5.35;;
19808;SDS011;48538;32.784;-96.802;2023-04-15T14:07:02;10.13;;;5.80;;
19808;SDS011;48538;32.784;-96.802;2023-04-15T14:09:30;12.27;;;5.18;;
19808;SDS011;48538;32.784;-96.802;2023-04-15T14:11:56;9.20;;;5.07;;
19808;SDS011;48538;32.784;-96.802;2023-04-15T14:14:24;8.98;;;5.63;;
19808;SDS011;48538;32.784;-96.802;2023-04-15T14:16:50;9.90;;;5.05;;
19808;SDS011;48538;32.784;-96.802;2023-04-15T14:19:16;10.23;;;4.88;;
19808;SDS011;48538;32.784;-96.802;2023-04-15T14:21:43;15.32;;;5.65;;
19808;SDS011;48538;32.784;-96.802;2023-04-15T14:24:09;9.38;;;5.13;;
19808;SDS011;48538;32.784;-96.802;2023-04-15T14:26:36;10.50;;;5.65;;
19808;SDS011;48538;32.784;-96.802;2023-04-15T14:29:02;12.75;;;5.57;;
19808;SDS011;48538;32.784;-96.802;2023-04-15T14:31:29;12.93;;;5.00;;
19808;SDS011;48538;32.784;-96.802;2023-04-15T14:33:55;12.23;;;5.93;;
19808;SDS011;48538;32.784;-96.802;2023-04-15T14:36:21;12.30;;;5.63;;
19808;SDS011;48538;32.784;-96.802;2023-04-15T14:38:47;14.20;;;6.38;;